sensor_id;sensor_type;location;lat;lon;timestamp;temperature;humidity
30889;DHT22;51092;50.874;7.024;2022-11-20T00:00:37;4.00;99.90
30889;DHT22;51092;50.874;7.024;2022-11-20T00:01:39;4.10;99.90
30889;DHT22;51092;50.874;7.024;2022-11-20T00:02:41;4.10;99.90
30889;DHT22;51092;50.874;7.024;2022-11-20T00:03:45;4.10;99.90
30889;DHT22;51092;50.874;7.024;2022-11-20T00:04:47;4.20;99.90
30889;DHT22;51092;50.874;7.024;2022-11-20T00:05:49;4.10;99.90
30889;DHT22;51092;50.874;7.024;2022-11-20T00:06:52;4.10;99.90
30889;DHT22;51092;50.874;7.024;2022-11-20T00:07:52;4.10;99.90
30889;DHT22;51092;50.874;7.024;2022-11-20T00:08:55;4.10;99.90
30889;DHT22;51092;50.874;7.024;2022-11-20T00:09:57;4.20;99.90
30889;DHT22;51092;50.874;7.024;2022-11-20T00:11:02;4.20;99.90
30889;DHT22;51092;50.874;7.024;2022-11-20T00:12:04;4.20;99.90
30889;DHT22;51092;50.874;7.024;2022-11-20T00:13:07;4.20;99.90
30889;DHT22;51092;50.874;7.024;2022-11-20T00:14:09;4.30;99.90
30889;DHT22;51092;50.874;7.024;2022-11-20T00:15:12;4.40;99.90
30889;DHT22;51092;50.874;7.024;2022-11-20T00:16:15;4.40;99.90
30889;DHT22;51092;50.874;7.024;2022-11-20T00:17:17;4.40;99.90
30889;DHT22;51092;50.874;7.024;2022-11-20T00:18:18;4.40;99.90
30889;DHT22;51092;50.874;7.024;2022-11-20T00:19:20;4.30;99.90
30889;DHT22;51092;50.874;7.024;2022-11-20T00:20:21;4.20;99.90
30889;DHT22;51092;50.874;7.024;2022-11-20T00:21:26;4.20;99.90
30889;DHT22;51092;50.874;7.024;2022-11-20T00:22:28;4.10;99.90
30889;DHT22;51092;50.874;7.024;2022-11-20T00:23:30;4.10;99.90
30889;DHT22;51092;50.874;7.024;2022-11-20T00:24:32;4.20;99.90
30889;DHT22;51092;50.874;7.024;2022-11-20T00:25:34;4.30;99.90
30889;DHT22;51092;50.874;7.024;2022-11-20T00:26:36;4.30;99.90
30889;DHT22;51092;50.874;7.024;2022-11-20T00:27:38;4.30;99.90
30889;DHT22;51092;50.874;7.024;2022-11-20T00:28:41;4.40;99.90
30889;DHT22;51092;50.874;7.024;2022-11-20T00:29:43;4.40;99.90
30889;DHT22;51092;50.874;7.024;2022-11-20T00:30:45;4.40;99.90
30889;DHT22;51092;50.874;7.024;2022-11-20T00:31:47;4.50;99.90
30889;DHT22;51092;50.874;7.024;2022-11-20T00:32:49;4.50;99.90
30889;DHT22;51092;50.874;7.024;2022-11-20T00:33:52;4.50;99.90
30889;DHT22;51092;50.874;7.024;2022-11-20T00:34:53;4.50;99.90
30889;DHT22;51092;50.874;7.024;2022-11-20T00:35:59;4.40;99.90
30889;DHT22;51092;50.874;7.024;2022-11-20T00:37:02;4.40;99.90
30889;DHT22;51092;50.874;7.024;2022-11-20T00:38:05;4.40;99.90
30889;DHT22;51092;50.874;7.024;2022-11-20T00:39:06;4.40;99.90
30889;DHT22;51092;50.874;7.024;2022-11-20T00:40:11;4.40;99.90
30889;DHT22;51092;50.874;7.024;2022-11-20T00:41:14;4.30;99.90
30889;DHT22;51092;50.874;7.024;2022-11-20T00:42:17;4.20;99.90
30889;DHT22;51092;50.874;7.024;2022-11-20T00:43:18;4.20;99.90
30889;DHT22;51092;50.874;7.024;2022-11-20T00:44:21;4.20;99.90
30889;DHT22;51092;50.874;7.024;2022-11-20T00:45:22;4.20;99.90
30889;DHT22;51092;50.874;7.024;2022-11-20T00:46:26;4.20;99.90
30889;DHT22;51092;50.874;7.024;2022-11-20T00:47:28;4.10;99.90
30889;DHT22;51092;50.874;7.024;2022-11-20T00:48:31;4.10;99.90
30889;DHT22;51092;50.874;7.024;2022-11-20T00:49:33;4.10;99.90
30889;DHT22;51092;50.874;7.024;2022-11-20T00:50:35;4.10;99.90
30889;DHT22;51092;50.874;7.024;2022-11-20T00:51:36;4.10;99.90
30889;DHT22;51092;50.874;7.024;2022-11-20T00:52:39;4.10;99.90
30889;DHT22;51092;50.874;7.024;2022-11-20T00:53:40;4.10;99.90
30889;DHT22;51092;50.874;7.024;2022-11-20T00:54:43;4.00;99.90
30889;DHT22;51092;50.874;7.024;2022-11-20T00:55:53;3.90;99.90
30889;DHT22;51092;50.874;7.024;2022-11-20T00:56:55;3.90;99.90
30889;DHT22;51092;50.874;7.024;2022-11-20T00:57:57;3.90;99.90
30889;DHT22;51092;50.874;7.024;2022-11-20T00:59:00;3.90;99.90
30889;DHT22;51092;50.874;7.024;2022-11-20T01:00:03;3.90;99.90
30889;DHT22;51092;50.874;7.024;2022-11-20T01:01:08;4.00;99.90
30889;DHT22;51092;50.874;7.024;2022-11-20T01:02:10;4.00;99.90
30889;DHT22;51092;50.874;7.024;2022-11-20T01:03:12;3.90;99.90
30889;DHT22;51092;50.874;7.024;2022-11-20T01:04:14;4.00;99.90
30889;DHT22;51092;50.874;7.024;2022-11-20T01:05:15;3.90;99.90
30889;DHT22;51092;50.874;7.024;2022-11-20T01:06:19;3.90;99.90
30889;DHT22;51092;50.874;7.024;2022-11-20T01:07:20;3.90;99.90
30889;DHT22;51092;50.874;7.024;2022-11-20T01:08:24;3.90;99.90
30889;DHT22;51092;50.874;7.024;2022-11-20T01:09:25;3.80;99.90
30889;DHT22;51092;50.874;7.024;2022-11-20T01:10:28;3.80;99.90
30889;DHT22;51092;50.874;7.024;2022-11-20T01:11:31;3.90;99.90
30889;DHT22;51092;50.874;7.024;2022-11-20T01:12:34;4.00;99.90
30889;DHT22;51092;50.874;7.024;2022-11-20T01:13:36;4.10;99.90
30889;DHT22;51092;50.874;7.024;2022-11-20T01:14:38;4.10;99.90
30889;DHT22;51092;50.874;7.024;2022-11-20T01:15:40;4.00;99.90
30889;DHT22;51092;50.874;7.024;2022-11-20T01:16:44;4.10;99.90
30889;DHT22;51092;50.874;7.024;2022-11-20T01:17:46;4.10;99.90
30889;DHT22;51092;50.874;7.024;2022-11-20T01:18:49;4.20;99.90
30889;DHT22;51092;50.874;7.024;2022-11-20T01:19:52;4.10;99.90
30889;DHT22;51092;50.874;7.024;2022-11-20T01:20:54;4.10;99.90
30889;DHT22;51092;50.874;7.024;2022-11-20T01:21:56;4.10;99.90
30889;DHT22;51092;50.874;7.024;2022-11-20T01:22:59;4.00;99.90
30889;DHT22;51092;50.874;7.024;2022-11-20T01:24:02;4.00;99.90
30889;DHT22;51092;50.874;7.024;2022-11-20T01:25:05;4.00;99.90
30889;DHT22;51092;50.874;7.024;2022-11-20T01:26:08;4.00;99.90
30889;DHT22;51092;50.874;7.024;2022-11-20T01:27:11;4.00;99.90
30889;DHT22;51092;50.874;7.024;2022-11-20T01:28:13;4.00;99.90
30889;DHT22;51092;50.874;7.024;2022-11-20T01:29:18;4.00;99.90
30889;DHT22;51092;50.874;7.024;2022-11-20T01:30:20;4.10;99.90
30889;DHT22;51092;50.874;7.024;2022-11-20T01:31:25;4.10;99.90
30889;DHT22;51092;50.874;7.024;2022-11-20T01:32:27;4.00;99.90
30889;DHT22;51092;50.874;7.024;2022-11-20T01:33:29;4.00;99.90
30889;DHT22;51092;50.874;7.024;2022-11-20T01:34:31;4.00;99.90
30889;DHT22;51092;50.874;7.024;2022-11-20T01:35:33;4.10;99.90
30889;DHT22;51092;50.874;7.024;2022-11-20T01:36:36;4.30;99.90
30889;DHT22;51092;50.874;7.024;2022-11-20T01:37:38;4.30;99.90
30889;DHT22;51092;50.874;7.024;2022-11-20T01:38:40;4.40;99.90
30889;DHT22;51092;50.874;7.024;2022-11-20T01:39:44;4.40;99.90
30889;DHT22;51092;50.874;7.024;2022-11-20T01:40:53;4.50;99.90
30889;DHT22;51092;50.874;7.024;2022-11-20T01:41:56;4.40;99.90
30889;DHT22;51092;50.874;7.024;2022-11-20T01:43:17;4.40;99.90
30889;DHT22;51092;50.874;7.024;2022-11-20T01:44:47;4.40;99.90
30889;DHT22;51092;50.874;7.024;2022-11-20T01:46:08;4.30;99.90
30889;DHT22;51092;50.874;7.024;2022-11-20T01:47:17;4.40;99.90
30889;DHT22;51092;50.874;7.024;2022-11-20T01:48:19;4.40;99.90
30889;DHT22;51092;50.874;7.024;2022-11-20T01:49:25;4.40;99.90
30889;DHT22;51092;50.874;7.024;2022-11-20T01:50:28;4.50;99.90
30889;DHT22;51092;50.874;7.024;2022-11-20T01:51:34;4.50;99.90
30889;DHT22;51092;50.874;7.024;2022-11-20T01:52:38;4.60;99.90
30889;DHT22;51092;50.874;7.024;2022-11-20T01:53:41;4.50;99.90
30889;DHT22;51092;50.874;7.024;2022-11-20T01:54:48;4.50;99.90
30889;DHT22;51092;50.874;7.024;2022-11-20T01:55:53;4.50;99.90
30889;DHT22;51092;50.874;7.024;2022-11-20T01:56:57;4.40;99.90
30889;DHT22;51092;50.874;7.024;2022-11-20T01:58:03;4.40;99.90
30889;DHT22;51092;50.874;7.024;2022-11-20T01:59:07;4.40;99.90
30889;DHT22;51092;50.874;7.024;2022-11-20T02:00:13;4.40;99.90
30889;DHT22;51092;50.874;7.024;2022-11-20T02:01:15;4.40;99.90
30889;DHT22;51092;50.874;7.024;2022-11-20T02:02:20;4.40;99.90
30889;DHT22;51092;50.874;7.024;2022-11-20T02:03:23;4.40;99.90
30889;DHT22;51092;50.874;7.024;2022-11-20T02:04:25;4.50;99.90
30889;DHT22;51092;50.874;7.024;2022-11-20T02:05:31;4.40;99.90
30889;DHT22;51092;50.874;7.024;2022-11-20T02:06:37;4.40;99.90
30889;DHT22;51092;50.874;7.024;2022-11-20T02:07:41;4.40;99.90
30889;DHT22;51092;50.874;7.024;2022-11-20T02:08:43;4.40;99.90
30889;DHT22;51092;50.874;7.024;2022-11-20T02:09:46;4.20;99.90
30889;DHT22;51092;50.874;7.024;2022-11-20T02:10:49;4.20;99.90
30889;DHT22;51092;50.874;7.024;2022-11-20T02:11:51;4.10;99.90
30889;DHT22;51092;50.874;7.024;2022-11-20T02:12:54;4.00;99.90
30889;DHT22;51092;50.874;7.024;2022-11-20T02:14:14;4.00;99.90
30889;DHT22;51092;50.874;7.024;2022-11-20T02:15:16;3.90;99.90
30889;DHT22;51092;50.874;7.024;2022-11-20T02:16:21;3.80;99.90
30889;DHT22;51092;50.874;7.024;2022-11-20T02:17:24;3.70;99.90
30889;DHT22;51092;50.874;7.024;2022-11-20T02:18:26;3.70;99.90
30889;DHT22;51092;50.874;7.024;2022-11-20T02:19:31;3.70;99.90
30889;DHT22;51092;50.874;7.024;2022-11-20T02:20:33;3.70;99.90
30889;DHT22;51092;50.874;7.024;2022-11-20T02:21:39;3.60;99.90
30889;DHT22;51092;50.874;7.024;2022-11-20T02:22:48;3.60;99.90
30889;DHT22;51092;50.874;7.024;2022-11-20T02:24:08;3.60;99.90
30889;DHT22;51092;50.874;7.024;2022-11-20T02:25:12;3.60;99.90
30889;DHT22;51092;50.874;7.024;2022-11-20T02:26:14;3.60;99.90
30889;DHT22;51092;50.874;7.024;2022-11-20T02:27:18;3.60;99.90
30889;DHT22;51092;50.874;7.024;2022-11-20T02:28:20;3.70;99.90
30889;DHT22;51092;50.874;7.024;2022-11-20T02:29:25;3.70;99.90
30889;DHT22;51092;50.874;7.024;2022-11-20T02:30:27;3.70;99.90
30889;DHT22;51092;50.874;7.024;2022-11-20T02:31:37;3.70;99.90
30889;DHT22;51092;50.874;7.024;2022-11-20T02:32:40;3.60;99.90
30889;DHT22;51092;50.874;7.024;2022-11-20T02:33:41;3.60;99.90
30889;DHT22;51092;50.874;7.024;2022-11-20T02:34:44;3.70;99.90
30889;DHT22;51092;50.874;7.024;2022-11-20T02:35:47;3.70;99.90
30889;DHT22;51092;50.874;7.024;2022-11-20T02:36:49;3.80;99.90
30889;DHT22;51092;50.874;7.024;2022-11-20T02:37:54;3.80;99.90
30889;DHT22;51092;50.874;7.024;2022-11-20T02:38:56;4.00;99.90
30889;DHT22;51092;50.874;7.024;2022-11-20T02:40:00;4.00;99.90
30889;DHT22;51092;50.874;7.024;2022-11-20T02:41:01;4.00;99.90
30889;DHT22;51092;50.874;7.024;2022-11-20T02:42:04;4.10;99.90
30889;DHT22;51092;50.874;7.024;2022-11-20T02:43:06;4.20;99.90
30889;DHT22;51092;50.874;7.024;2022-11-20T02:44:08;4.20;99.90
30889;DHT22;51092;50.874;7.024;2022-11-20T02:45:11;4.20;99.90
30889;DHT22;51092;50.874;7.024;2022-11-20T02:46:13;4.20;99.90
30889;DHT22;51092;50.874;7.024;2022-11-20T02:47:15;4.20;99.90
30889;DHT22;51092;50.874;7.024;2022-11-20T02:48:17;4.20;99.90
30889;DHT22;51092;50.874;7.024;2022-11-20T02:49:20;4.20;99.90
30889;DHT22;51092;50.874;7.024;2022-11-20T02:50:21;4.20;99.90
30889;DHT22;51092;50.874;7.024;2022-11-20T02:51:24;4.30;99.90
30889;DHT22;51092;50.874;7.024;2022-11-20T02:52:26;4.30;99.90
30889;DHT22;51092;50.874;7.024;2022-11-20T02:53:28;4.30;99.90
30889;DHT22;51092;50.874;7.024;2022-11-20T02:54:30;4.20;99.90
30889;DHT22;51092;50.874;7.024;2022-11-20T02:55:34;4.20;99.90
30889;DHT22;51092;50.874;7.024;2022-11-20T02:56:37;4.20;99.90
30889;DHT22;51092;50.874;7.024;2022-11-20T02:57:40;4.10;99.90
30889;DHT22;51092;50.874;7.024;2022-11-20T02:58:42;4.10;99.90
30889;DHT22;51092;50.874;7.024;2022-11-20T02:59:44;4.20;99.90
30889;DHT22;51092;50.874;7.024;2022-11-20T03:00:45;4.20;99.90
30889;DHT22;51092;50.874;7.024;2022-11-20T03:01:47;4.20;99.90
30889;DHT22;51092;50.874;7.024;2022-11-20T03:02:48;4.10;99.90
30889;DHT22;51092;50.874;7.024;2022-11-20T03:03:50;4.20;99.90
30889;DHT22;51092;50.874;7.024;2022-11-20T03:04:55;4.10;99.90
30889;DHT22;51092;50.874;7.024;2022-11-20T03:05:58;4.20;99.90
30889;DHT22;51092;50.874;7.024;2022-11-20T03:07:02;4.00;99.90
30889;DHT22;51092;50.874;7.024;2022-11-20T03:08:04;4.00;99.90
30889;DHT22;51092;50.874;7.024;2022-11-20T03:09:06;4.00;99.90
30889;DHT22;51092;50.874;7.024;2022-11-20T03:10:08;4.00;99.90
30889;DHT22;51092;50.874;7.024;2022-11-20T03:11:12;3.90;99.90
30889;DHT22;51092;50.874;7.024;2022-11-20T03:12:14;3.90;99.90
30889;DHT22;51092;50.874;7.024;2022-11-20T03:13:16;4.00;99.90
30889;DHT22;51092;50.874;7.024;2022-11-20T03:14:18;4.00;99.90
30889;DHT22;51092;50.874;7.024;2022-11-20T03:15:20;4.10;99.90
30889;DHT22;51092;50.874;7.024;2022-11-20T03:16:23;4.00;99.90
30889;DHT22;51092;50.874;7.024;2022-11-20T03:17:25;4.00;99.90
30889;DHT22;51092;50.874;7.024;2022-11-20T03:18:27;4.00;99.90
30889;DHT22;51092;50.874;7.024;2022-11-20T03:19:30;3.90;99.90
30889;DHT22;51092;50.874;7.024;2022-11-20T03:20:32;3.90;99.90
30889;DHT22;51092;50.874;7.024;2022-11-20T03:21:35;3.90;99.90
30889;DHT22;51092;50.874;7.024;2022-11-20T03:22:37;3.90;99.90
30889;DHT22;51092;50.874;7.024;2022-11-20T03:23:40;3.90;99.90
30889;DHT22;51092;50.874;7.024;2022-11-20T03:24:41;4.00;99.90
30889;DHT22;51092;50.874;7.024;2022-11-20T03:25:44;3.90;99.90
30889;DHT22;51092;50.874;7.024;2022-11-20T03:26:47;3.90;99.90
30889;DHT22;51092;50.874;7.024;2022-11-20T03:27:50;4.00;99.90
30889;DHT22;51092;50.874;7.024;2022-11-20T03:28:52;4.10;99.90
30889;DHT22;51092;50.874;7.024;2022-11-20T03:29:55;4.10;99.90
30889;DHT22;51092;50.874;7.024;2022-11-20T03:30:57;4.10;99.90
30889;DHT22;51092;50.874;7.024;2022-11-20T03:32:00;4.20;99.90
30889;DHT22;51092;50.874;7.024;2022-11-20T03:33:01;4.10;99.90
30889;DHT22;51092;50.874;7.024;2022-11-20T03:34:04;4.10;99.90
30889;DHT22;51092;50.874;7.024;2022-11-20T03:35:06;4.10;99.90
30889;DHT22;51092;50.874;7.024;2022-11-20T03:36:10;4.10;99.90
30889;DHT22;51092;50.874;7.024;2022-11-20T03:37:12;4.10;99.90
30889;DHT22;51092;50.874;7.024;2022-11-20T03:38:15;4.10;99.90
30889;DHT22;51092;50.874;7.024;2022-11-20T03:39:16;4.10;99.90
30889;DHT22;51092;50.874;7.024;2022-11-20T03:40:19;4.10;99.90
30889;DHT22;51092;50.874;7.024;2022-11-20T03:41:22;4.10;99.90
30889;DHT22;51092;50.874;7.024;2022-11-20T03:42:26;4.10;99.90
30889;DHT22;51092;50.874;7.024;2022-11-20T03:43:47;4.10;99.90
30889;DHT22;51092;50.874;7.024;2022-11-20T03:44:50;4.20;99.90
30889;DHT22;51092;50.874;7.024;2022-11-20T03:45:51;4.20;99.90
30889;DHT22;51092;50.874;7.024;2022-11-20T03:46:54;4.20;99.90
30889;DHT22;51092;50.874;7.024;2022-11-20T03:47:55;4.20;99.90
30889;DHT22;51092;50.874;7.024;2022-11-20T03:48:58;4.20;99.90
30889;DHT22;51092;50.874;7.024;2022-11-20T03:50:00;4.30;99.90
30889;DHT22;51092;50.874;7.024;2022-11-20T03:51:09;4.30;99.90
30889;DHT22;51092;50.874;7.024;2022-11-20T03:52:11;4.40;99.90
30889;DHT22;51092;50.874;7.024;2022-11-20T03:53:13;4.40;99.90
30889;DHT22;51092;50.874;7.024;2022-11-20T03:54:15;4.40;99.90
30889;DHT22;51092;50.874;7.024;2022-11-20T03:55:17;4.40;99.90
30889;DHT22;51092;50.874;7.024;2022-11-20T03:56:22;4.50;99.90
30889;DHT22;51092;50.874;7.024;2022-11-20T03:57:23;4.50;99.90
30889;DHT22;51092;50.874;7.024;2022-11-20T03:58:26;4.50;99.90
30889;DHT22;51092;50.874;7.024;2022-11-20T03:59:28;4.40;99.90
30889;DHT22;51092;50.874;7.024;2022-11-20T04:00:29;4.30;99.90
30889;DHT22;51092;50.874;7.024;2022-11-20T04:01:33;4.30;99.90
30889;DHT22;51092;50.874;7.024;2022-11-20T04:02:35;4.20;99.90
30889;DHT22;51092;50.874;7.024;2022-11-20T04:03:39;4.20;99.90
30889;DHT22;51092;50.874;7.024;2022-11-20T04:04:40;4.20;99.90
30889;DHT22;51092;50.874;7.024;2022-11-20T04:05:43;4.30;99.90
30889;DHT22;51092;50.874;7.024;2022-11-20T04:06:45;4.20;99.90
30889;DHT22;51092;50.874;7.024;2022-11-20T04:07:48;4.20;99.90
30889;DHT22;51092;50.874;7.024;2022-11-20T04:08:49;4.10;99.90
30889;DHT22;51092;50.874;7.024;2022-11-20T04:09:52;4.10;99.90
30889;DHT22;51092;50.874;7.024;2022-11-20T04:10:54;4.10;99.90
30889;DHT22;51092;50.874;7.024;2022-11-20T04:11:56;4.10;99.90
30889;DHT22;51092;50.874;7.024;2022-11-20T04:12:58;4.10;99.90
30889;DHT22;51092;50.874;7.024;2022-11-20T04:14:03;4.10;99.90
30889;DHT22;51092;50.874;7.024;2022-11-20T04:15:06;4.20;99.90
30889;DHT22;51092;50.874;7.024;2022-11-20T04:16:09;4.20;99.90
30889;DHT22;51092;50.874;7.024;2022-11-20T04:17:10;4.20;99.90
30889;DHT22;51092;50.874;7.024;2022-11-20T04:18:13;4.20;99.90
30889;DHT22;51092;50.874;7.024;2022-11-20T04:19:15;4.20;99.90
30889;DHT22;51092;50.874;7.024;2022-11-20T04:20:18;4.30;99.90
30889;DHT22;51092;50.874;7.024;2022-11-20T04:21:21;4.40;99.90
30889;DHT22;51092;50.874;7.024;2022-11-20T04:22:24;4.40;99.90
30889;DHT22;51092;50.874;7.024;2022-11-20T04:23:25;4.30;99.90
30889;DHT22;51092;50.874;7.024;2022-11-20T04:24:28;4.30;99.90
30889;DHT22;51092;50.874;7.024;2022-11-20T04:25:29;4.30;99.90
30889;DHT22;51092;50.874;7.024;2022-11-20T04:26:32;4.20;99.90
30889;DHT22;51092;50.874;7.024;2022-11-20T04:27:34;4.20;99.90
30889;DHT22;51092;50.874;7.024;2022-11-20T04:28:37;4.30;99.90
30889;DHT22;51092;50.874;7.024;2022-11-20T04:29:40;4.30;99.90
30889;DHT22;51092;50.874;7.024;2022-11-20T04:30:43;4.30;99.90
30889;DHT22;51092;50.874;7.024;2022-11-20T04:31:44;4.30;99.90
30889;DHT22;51092;50.874;7.024;2022-11-20T04:32:47;4.30;99.90
30889;DHT22;51092;50.874;7.024;2022-11-20T04:33:48;4.40;99.90
30889;DHT22;51092;50.874;7.024;2022-11-20T04:34:51;4.30;99.90
30889;DHT22;51092;50.874;7.024;2022-11-20T04:35:53;4.30;99.90
30889;DHT22;51092;50.874;7.024;2022-11-20T04:36:55;4.30;99.90
30889;DHT22;51092;50.874;7.024;2022-11-20T04:37:56;4.30;99.90
30889;DHT22;51092;50.874;7.024;2022-11-20T04:39:01;4.20;99.90
30889;DHT22;51092;50.874;7.024;2022-11-20T04:40:03;4.30;99.90
30889;DHT22;51092;50.874;7.024;2022-11-20T04:41:08;4.30;99.90
30889;DHT22;51092;50.874;7.024;2022-11-20T04:42:12;4.20;99.90
30889;DHT22;51092;50.874;7.024;2022-11-20T04:43:33;4.20;99.90
30889;DHT22;51092;50.874;7.024;2022-11-20T04:44:34;4.20;99.90
30889;DHT22;51092;50.874;7.024;2022-11-20T04:45:38;4.10;99.90
30889;DHT22;51092;50.874;7.024;2022-11-20T04:46:41;4.20;99.90
30889;DHT22;51092;50.874;7.024;2022-11-20T04:47:44;4.10;99.90
30889;DHT22;51092;50.874;7.024;2022-11-20T04:48:46;4.10;99.90
30889;DHT22;51092;50.874;7.024;2022-11-20T04:49:49;4.10;99.90
30889;DHT22;51092;50.874;7.024;2022-11-20T04:50:50;4.20;99.90
30889;DHT22;51092;50.874;7.024;2022-11-20T04:51:53;4.20;99.90
30889;DHT22;51092;50.874;7.024;2022-11-20T04:52:54;4.20;99.90
30889;DHT22;51092;50.874;7.024;2022-11-20T04:53:57;4.20;99.90
30889;DHT22;51092;50.874;7.024;2022-11-20T04:54:58;4.20;99.90
30889;DHT22;51092;50.874;7.024;2022-11-20T04:56:01;4.10;99.90
30889;DHT22;51092;50.874;7.024;2022-11-20T04:57:03;4.10;99.90
30889;DHT22;51092;50.874;7.024;2022-11-20T04:58:06;4.10;99.90
30889;DHT22;51092;50.874;7.024;2022-11-20T04:59:07;4.10;99.90
30889;DHT22;51092;50.874;7.024;2022-11-20T05:00:11;4.10;99.90
30889;DHT22;51092;50.874;7.024;2022-11-20T05:01:16;4.20;99.90
30889;DHT22;51092;50.874;7.024;2022-11-20T05:02:19;4.20;99.90
30889;DHT22;51092;50.874;7.024;2022-11-20T05:03:20;4.30;99.90
30889;DHT22;51092;50.874;7.024;2022-11-20T05:04:23;4.20;99.90
30889;DHT22;51092;50.874;7.024;2022-11-20T05:05:24;4.30;99.90
30889;DHT22;51092;50.874;7.024;2022-11-20T05:06:27;4.20;99.90
30889;DHT22;51092;50.874;7.024;2022-11-20T05:07:29;4.20;99.90
30889;DHT22;51092;50.874;7.024;2022-11-20T05:08:31;4.30;99.90
30889;DHT22;51092;50.874;7.024;2022-11-20T05:09:33;4.30;99.90
30889;DHT22;51092;50.874;7.024;2022-11-20T05:10:36;4.30;99.90
30889;DHT22;51092;50.874;7.024;2022-11-20T05:11:37;4.30;99.90
30889;DHT22;51092;50.874;7.024;2022-11-20T05:12:40;4.40;99.90
30889;DHT22;51092;50.874;7.024;2022-11-20T05:13:42;4.30;99.90
30889;DHT22;51092;50.874;7.024;2022-11-20T05:14:44;4.10;99.90
30889;DHT22;51092;50.874;7.024;2022-11-20T05:15:46;4.00;99.90
30889;DHT22;51092;50.874;7.024;2022-11-20T05:16:49;4.00;99.90
30889;DHT22;51092;50.874;7.024;2022-11-20T05:17:52;4.00;99.90
30889;DHT22;51092;50.874;7.024;2022-11-20T05:18:54;4.00;99.90
30889;DHT22;51092;50.874;7.024;2022-11-20T05:19:56;3.80;99.90
30889;DHT22;51092;50.874;7.024;2022-11-20T05:20:58;3.80;99.90
30889;DHT22;51092;50.874;7.024;2022-11-20T05:22:00;3.80;99.90
30889;DHT22;51092;50.874;7.024;2022-11-20T05:23:02;3.90;99.90
30889;DHT22;51092;50.874;7.024;2022-11-20T05:24:04;3.90;99.90
30889;DHT22;51092;50.874;7.024;2022-11-20T05:25:08;3.90;99.90
30889;DHT22;51092;50.874;7.024;2022-11-20T05:26:14;3.80;99.90
30889;DHT22;51092;50.874;7.024;2022-11-20T05:27:31;3.70;99.90
30889;DHT22;51092;50.874;7.024;2022-11-20T05:28:33;3.60;99.90
30889;DHT22;51092;50.874;7.024;2022-11-20T05:29:36;3.60;99.90
30889;DHT22;51092;50.874;7.024;2022-11-20T05:30:37;3.60;99.90
30889;DHT22;51092;50.874;7.024;2022-11-20T05:31:40;3.60;99.90
30889;DHT22;51092;50.874;7.024;2022-11-20T05:32:43;3.60;99.90
30889;DHT22;51092;50.874;7.024;2022-11-20T05:33:46;3.60;99.90
30889;DHT22;51092;50.874;7.024;2022-11-20T05:34:47;3.50;99.90
30889;DHT22;51092;50.874;7.024;2022-11-20T05:35:50;3.50;99.90
30889;DHT22;51092;50.874;7.024;2022-11-20T05:36:51;3.50;99.90
30889;DHT22;51092;50.874;7.024;2022-11-20T05:37:54;3.50;99.90
30889;DHT22;51092;50.874;7.024;2022-11-20T05:38:55;3.60;99.90
30889;DHT22;51092;50.874;7.024;2022-11-20T05:39:58;3.60;99.90
30889;DHT22;51092;50.874;7.024;2022-11-20T05:41:04;3.60;99.90
30889;DHT22;51092;50.874;7.024;2022-11-20T05:42:06;3.60;99.90
30889;DHT22;51092;50.874;7.024;2022-11-20T05:43:27;3.60;99.90
30889;DHT22;51092;50.874;7.024;2022-11-20T05:44:29;3.50;99.90
30889;DHT22;51092;50.874;7.024;2022-11-20T05:45:31;3.50;99.90
30889;DHT22;51092;50.874;7.024;2022-11-20T05:46:33;3.40;99.90
30889;DHT22;51092;50.874;7.024;2022-11-20T05:47:34;3.40;99.90
30889;DHT22;51092;50.874;7.024;2022-11-20T05:48:39;3.50;99.90
30889;DHT22;51092;50.874;7.024;2022-11-20T05:49:41;3.50;99.90
30889;DHT22;51092;50.874;7.024;2022-11-20T05:50:43;3.50;99.90
30889;DHT22;51092;50.874;7.024;2022-11-20T05:51:45;3.60;99.90
30889;DHT22;51092;50.874;7.024;2022-11-20T05:52:47;3.60;99.90
30889;DHT22;51092;50.874;7.024;2022-11-20T05:53:49;3.60;99.90
30889;DHT22;51092;50.874;7.024;2022-11-20T05:54:51;3.60;99.90
30889;DHT22;51092;50.874;7.024;2022-11-20T05:55:57;3.60;99.90
30889;DHT22;51092;50.874;7.024;2022-11-20T05:57:00;3.70;99.90
30889;DHT22;51092;50.874;7.024;2022-11-20T05:58:02;3.80;99.90
30889;DHT22;51092;50.874;7.024;2022-11-20T05:59:04;3.80;99.90
30889;DHT22;51092;50.874;7.024;2022-11-20T06:00:07;3.80;99.90
30889;DHT22;51092;50.874;7.024;2022-11-20T06:01:11;3.70;99.90
30889;DHT22;51092;50.874;7.024;2022-11-20T06:02:13;3.80;99.90
30889;DHT22;51092;50.874;7.024;2022-11-20T06:03:15;3.80;99.90
30889;DHT22;51092;50.874;7.024;2022-11-20T06:04:17;3.90;99.90
30889;DHT22;51092;50.874;7.024;2022-11-20T06:05:20;3.90;99.90
30889;DHT22;51092;50.874;7.024;2022-11-20T06:06:22;4.00;99.90
30889;DHT22;51092;50.874;7.024;2022-11-20T06:07:26;4.00;99.90
30889;DHT22;51092;50.874;7.024;2022-11-20T06:08:28;3.90;99.90
30889;DHT22;51092;50.874;7.024;2022-11-20T06:09:30;3.90;99.90
30889;DHT22;51092;50.874;7.024;2022-11-20T06:10:32;3.90;99.90
30889;DHT22;51092;50.874;7.024;2022-11-20T06:11:34;3.80;99.90
30889;DHT22;51092;50.874;7.024;2022-11-20T06:12:36;3.70;99.90
30889;DHT22;51092;50.874;7.024;2022-11-20T06:13:39;3.70;99.90
30889;DHT22;51092;50.874;7.024;2022-11-20T06:14:41;3.70;99.90
30889;DHT22;51092;50.874;7.024;2022-11-20T06:15:48;3.60;99.90
30889;DHT22;51092;50.874;7.024;2022-11-20T06:16:51;3.60;99.90
30889;DHT22;51092;50.874;7.024;2022-11-20T06:17:53;3.60;99.90
30889;DHT22;51092;50.874;7.024;2022-11-20T06:18:55;3.70;99.90
30889;DHT22;51092;50.874;7.024;2022-11-20T06:19:59;3.70;99.90
30889;DHT22;51092;50.874;7.024;2022-11-20T06:21:01;3.70;99.90
30889;DHT22;51092;50.874;7.024;2022-11-20T06:22:04;3.70;99.90
30889;DHT22;51092;50.874;7.024;2022-11-20T06:23:06;3.70;99.90
30889;DHT22;51092;50.874;7.024;2022-11-20T06:24:09;3.70;99.90
30889;DHT22;51092;50.874;7.024;2022-11-20T06:25:11;3.70;99.90
30889;DHT22;51092;50.874;7.024;2022-11-20T06:26:15;3.70;99.90
30889;DHT22;51092;50.874;7.024;2022-11-20T06:27:17;3.70;99.90
30889;DHT22;51092;50.874;7.024;2022-11-20T06:28:19;3.70;99.90
30889;DHT22;51092;50.874;7.024;2022-11-20T06:29:21;3.70;99.90
30889;DHT22;51092;50.874;7.024;2022-11-20T06:30:23;3.70;99.90
30889;DHT22;51092;50.874;7.024;2022-11-20T06:31:25;3.70;99.90
30889;DHT22;51092;50.874;7.024;2022-11-20T06:32:28;3.70;99.90
30889;DHT22;51092;50.874;7.024;2022-11-20T06:33:30;3.70;99.90
30889;DHT22;51092;50.874;7.024;2022-11-20T06:34:32;3.70;99.90
30889;DHT22;51092;50.874;7.024;2022-11-20T06:35:35;3.80;99.90
30889;DHT22;51092;50.874;7.024;2022-11-20T06:36:37;3.70;99.90
30889;DHT22;51092;50.874;7.024;2022-11-20T06:37:39;3.70;99.90
30889;DHT22;51092;50.874;7.024;2022-11-20T06:38:42;3.70;99.90
30889;DHT22;51092;50.874;7.024;2022-11-20T06:39:43;3.70;99.90
30889;DHT22;51092;50.874;7.024;2022-11-20T06:40:46;3.60;99.90
30889;DHT22;51092;50.874;7.024;2022-11-20T06:41:47;3.70;99.90
30889;DHT22;51092;50.874;7.024;2022-11-20T06:42:50;3.80;99.90
30889;DHT22;51092;50.874;7.024;2022-11-20T06:43:51;3.90;99.90
30889;DHT22;51092;50.874;7.024;2022-11-20T06:44:54;3.90;99.90